Time;durP1;ratioP1;P1;durP2;ratioP2;P2;SDS_P1;SDS_P2;PMS_P1;PMS_P2;Temp;Humidity;BMP_temperature;BMP_pressure;BME280_temperature;BME280_humidity;BME280_pressure;Samples;Min_cycle;Max_cycle;Signal;HPM_P1;HPM_P2
2020/12/19 00:00:14;;;;;;;74.90;24.95;;;;;;;-0.95;100.00;96622.72;1033114;28;20491;-78
2020/12/19 00:00:46;;;;;;;67.57;24.27;;;;;;;-1.01;100.00;96617.88;1037029;28;20385;-77
2020/12/19 00:01:17;;;;;;;76.40;27.70;;;;;;;-0.95;100.00;96620.13;1025211;28;20026;-78
2020/12/19 00:01:48;;;;;;;69.68;26.20;;;;;;;-0.96;100.00;96623.69;1037074;28;20502;-78
2020/12/19 00:02:19;;;;;;;82.00;28.70;;;;;;;-0.92;100.00;96623.47;1037345;28;20022;-78
2020/12/19 00:02:50;;;;;;;84.10;26.45;;;;;;;-0.87;100.00;96621.44;1040966;28;20018;-78
2020/12/19 00:03:21;;;;;;;57.67;24.48;;;;;;;-0.95;100.00;96609.69;1029077;28;20025;-77
2020/12/19 00:03:51;;;;;;;57.97;23.35;;;;;;;-1.01;100.00;96609.22;1033272;28;20010;-78
2020/12/19 00:04:22;;;;;;;59.22;22.88;;;;;;;-0.93;100.00;96619.22;1029122;28;20046;-78
2020/12/19 00:04:53;;;;;;;61.28;24.20;;;;;;;-0.99;100.00;96634.28;1028817;28;20026;-77
2020/12/19 00:05:24;;;;;;;53.40;24.05;;;;;;;-1.03;100.00;96626.72;1024967;28;20051;-78
2020/12/19 00:05:54;;;;;;;93.80;27.90;;;;;;;-1.15;100.00;96620.41;1041310;28;20052;-78
2020/12/19 00:06:25;;;;;;;72.88;24.48;;;;;;;-1.03;100.00;96622.34;1041224;28;20112;-77
2020/12/19 00:06:56;;;;;;;110.82;29.42;;;;;;;-1.00;100.00;96627.38;1028949;28;20019;-78
2020/12/19 00:07:27;;;;;;;87.60;26.65;;;;;;;-0.91;100.00;96612.13;1037302;28;20390;-78
2020/12/19 00:07:58;;;;;;;87.15;26.48;;;;;;;-1.06;100.00;96616.44;1025374;28;20579;-78
2020/12/19 00:08:29;;;;;;;72.07;26.02;;;;;;;-1.12;100.00;96622.84;1033286;28;20085;-78
2020/12/19 00:09:00;;;;;;;67.50;23.83;;;;;;;-1.12;100.00;96617.66;1024919;29;20031;-77
2020/12/19 00:09:30;;;;;;;47.90;21.90;;;;;;;-1.04;100.00;96615.44;1033090;28;20025;-77
2020/12/19 00:10:01;;;;;;;54.03;21.85;;;;;;;-1.04;100.00;96615.44;1025070;28;20081;-78
2020/12/19 00:10:32;;;;;;;125.18;29.25;;;;;;;-1.08;100.00;96615.69;1037161;28;20470;-77
2020/12/19 00:11:06;;;;;;;57.25;20.48;;;;;;;-1.21;100.00;96594.72;1024678;29;20046;-77
2020/12/19 00:11:37;;;;;;;188.52;31.55;;;;;;;-1.30;100.00;96600.47;1029200;28;20022;-77
2020/12/19 00:12:08;;;;;;;102.72;25.70;;;;;;;-1.21;100.00;96618.19;1033130;28;20022;-78
2020/12/19 00:12:38;;;;;;;180.80;33.40;;;;;;;-1.19;100.00;96613.72;1032940;28;20510;-77
2020/12/19 00:13:09;;;;;;;136.02;31.02;;;;;;;-1.23;100.00;96607.84;1028787;28;20015;-78
2020/12/19 00:13:40;;;;;;;84.75;25.30;;;;;;;-1.17;100.00;96610.13;1037055;28;20014;-78
2020/12/19 00:14:11;;;;;;;101.00;26.80;;;;;;;-1.16;100.00;96601.34;1024844;28;20027;-78
2020/12/19 00:14:41;;;;;;;120.90;30.92;;;;;;;-1.24;100.00;96593.13;1033072;28;20022;-78
2020/12/19 00:15:14;;;;;;;117.38;30.13;;;;;;;-1.24;100.00;96585.31;1044957;28;20021;-77
2020/12/19 00:15:44;;;;;;;66.45;22.58;;;;;;;-1.08;100.00;96607.88;1041068;28;20048;-78
2020/12/19 00:16:16;;;;;;;97.97;29.48;;;;;;;-1.11;100.00;96608.09;1033120;28;20030;-78
2020/12/19 00:16:47;;;;;;;70.47;23.33;;;;;;;-1.07;100.00;96599.97;1033117;28;20109;-78
2020/12/19 00:17:18;;;;;;;81.03;24.60;;;;;;;-1.08;100.00;96603.53;1037186;28;20038;-77
2020/12/19 00:17:49;;;;;;;85.63;25.60;;;;;;;-1.10;100.00;96604.53;1028981;28;20085;-78
2020/12/19 00:18:20;;;;;;;108.68;26.95;;;;;;;-1.19;100.00;96585.88;1021338;29;20488;-78
2020/12/19 00:18:50;;;;;;;124.10;28.50;;;;;;;-1.10;100.00;96604.53;1025251;28;20023;-77
2020/12/19 00:19:21;;;;;;;99.55;28.45;;;;;;;-1.06;100.00;96604.28;1033041;28;20056;-77
2020/12/19 00:19:52;;;;;;;73.82;23.25;;;;;;;-1.10;100.00;96604.53;1029118;28;20062;-77
2020/12/19 00:20:23;;;;;;;91.38;28.33;;;;;;;-1.13;100.00;96602.97;1033235;28;20022;-78
2020/12/19 00:20:54;;;;;;;172.68;35.10;;;;;;;-1.16;100.00;96596.13;1024942;28;20027;-78
2020/12/19 00:21:33;;;;;;;68.80;25.38;;;;;;;-1.12;100.00;96594.19;1020990;29;20052;-77
2020/12/19 00:22:05;;;;;;;103.35;28.35;;;;;;;-1.54;100.00;96534.03;1025146;29;20526;-77
2020/12/19 00:22:37;;;;;;;63.20;21.08;;;;;;;-1.25;100.00;96586.25;1041182;28;20378;-78
2020/12/19 00:23:07;;;;;;;98.50;24.60;;;;;;;-1.14;100.00;96594.28;1032809;28;20030;-78
2020/12/19 00:23:38;;;;;;;87.13;23.85;;;;;;;-1.22;100.00;96599.09;1041237;28;20049;-77
2020/12/19 00:24:09;;;;;;;96.38;24.50;;;;;;;-1.26;100.00;96601.97;1041296;28;20075;-78
2020/12/19 00:24:40;;;;;;;74.85;21.77;;;;;;;-1.33;100.00;96604.91;1033256;28;20084;-78
2020/12/19 00:25:11;;;;;;;89.93;23.40;;;;;;;-1.41;100.00;96590.63;1036846;28;20440;-77
2020/12/19 00:25:43;;;;;;;168.07;31.40;;;;;;;-1.52;100.00;96591.25;1024839;28;20474;-78
2020/12/19 00:26:13;;;;;;;106.97;26.10;;;;;;;-1.46;100.00;96588.31;1033157;28;20085;-77
2020/12/19 00:26:44;;;;;;;95.45;25.40;;;;;;;-1.35;100.00;96598.94;1037254;28;20026;-77
2020/12/19 00:27:15;;;;;;;79.05;23.83;;;;;;;-1.36;100.00;96605.09;1033056;28;20418;-78
2020/12/19 00:27:45;;;;;;;68.13;25.42;;;;;;;-1.30;100.00;96600.47;1029123;28;20061;-77
2020/12/19 00:28:16;;;;;;;86.97;25.02;;;;;;;-1.24;100.00;96602.72;1033049;28;20026;-78
2020/12/19 00:28:47;;;;;;;97.97;28.20;;;;;;;-1.34;100.00;96589.38;1025015;29;20464;-78
2020/12/19 00:29:17;;;;;;;78.78;24.35;;;;;;;-1.24;100.00;96607.91;1029084;28;20055;-77
2020/12/19 00:29:48;;;;;;;73.03;25.05;;;;;;;-1.25;100.00;96603.66;1020906;29;20032;-77
2020/12/19 00:30:19;;;;;;;63.65;24.92;;;;;;;-1.38;100.00;96586.09;1020900;29;20122;-78
2020/12/19 00:30:49;;;;;;;78.88;25.67;;;;;;;-1.30;100.00;96597.88;1025023;29;20217;-77
2020/12/19 00:31:23;;;;;;;78.43;25.63;;;;;;;-1.40;100.00;96577.53;1028919;28;20015;-78
2020/12/19 00:31:54;;;;;;;73.93;25.92;;;;;;;-1.26;100.00;96604.56;1032904;28;20383;-78
2020/12/19 00:32:25;;;;;;;91.28;27.08;;;;;;;-1.29;100.00;96595.16;1029008;28;20023;-78
2020/12/19 00:32:55;;;;;;;63.10;21.80;;;;;;;-1.26;100.00;96600.19;1036949;28;20093;-78
2020/12/19 00:33:26;;;;;;;74.45;23.92;;;;;;;-1.27;100.00;96598.53;1028903;28;20045;-77
2020/12/19 00:33:57;;;;;;;74.80;24.55;;;;;;;-1.35;100.00;96591.13;1025022;28;20018;-78
2020/12/19 00:34:28;;;;;;;69.10;22.65;;;;;;;-1.26;100.00;96594.16;1033095;28;20446;-78
2020/12/19 00:34:59;;;;;;;58.90;20.73;;;;;;;-1.23;100.00;96594.81;1024724;28;20087;-77
2020/12/19 00:35:29;;;;;;;115.82;28.88;;;;;;;-1.43;100.00;96572.50;1029248;28;20030;-78
2020/12/19 00:36:00;;;;;;;78.93;24.30;;;;;;;-1.29;100.00;96595.16;1029175;28;20015;-78
2020/12/19 00:36:31;;;;;;;103.47;26.60;;;;;;;-1.28;100.00;96596.00;1025229;28;20415;-77
2020/12/19 00:37:02;;;;;;;54.17;20.85;;;;;;;-1.29;100.00;96595.16;1028675;28;20197;-77
2020/12/19 00:37:32;;;;;;;94.22;26.15;;;;;;;-1.43;100.00;96576.84;1028948;28;20089;-78
2020/12/19 00:38:03;;;;;;;69.93;22.90;;;;;;;-1.28;100.00;96594.22;1032974;28;20014;-78
2020/12/19 00:38:34;;;;;;;51.28;20.10;;;;;;;-1.23;100.00;96591.38;1028965;28;20023;-78
2020/12/19 00:39:05;;;;;;;78.13;27.30;;;;;;;-1.38;100.00;96575.66;1032995;28;20022;-78
2020/12/19 00:39:36;;;;;;;94.53;27.08;;;;;;;-1.24;100.00;96597.50;1024946;28;20103;-77
2020/12/19 00:40:07;;;;;;;104.95;29.70;;;;;;;-1.25;100.00;96590.63;1033033;28;20022;-77
2020/12/19 00:40:38;;;;;;;78.93;26.70;;;;;;;-1.23;100.00;96593.97;1033047;28;20061;-78
2020/12/19 00:41:08;;;;;;;72.63;23.38;;;;;;;-1.15;100.00;96591.75;1024882;28;20031;-77
2020/12/19 00:41:39;;;;;;;102.90;25.45;;;;;;;-1.13;100.00;96595.13;1029065;28;20022;-77
2020/12/19 00:42:10;;;;;;;112.20;28.75;;;;;;;-1.12;100.00;96591.59;1033064;28;20019;-78
2020/12/19 00:42:41;;;;;;;106.55;27.70;;;;;;;-1.18;100.00;96591.97;1033107;28;20077;-78
2020/12/19 00:43:11;;;;;;;70.40;21.60;;;;;;;-1.20;100.00;96593.78;1036778;28;20045;-77
2020/12/19 00:43:42;;;;;;;98.80;25.35;;;;;;;-1.38;100.00;96577.44;1029072;28;20551;-77
2020/12/19 00:44:13;;;;;;;75.47;24.52;;;;;;;-1.36;100.00;96592.06;1028912;28;20017;-77
2020/12/19 00:44:43;;;;;;;82.95;22.90;;;;;;;-1.39;100.00;96579.22;1041052;28;20060;-78
2020/12/19 00:45:14;;;;;;;75.55;22.83;;;;;;;-1.60;100.00;96543.94;1036889;28;20025;-77
2020/12/19 00:45:45;;;;;;;76.03;24.65;;;;;;;-1.67;100.00;96530.47;1037033;28;20047;-77
2020/12/19 00:46:16;;;;;;;81.72;25.50;;;;;;;-1.34;100.00;96585.00;1024972;28;20030;-77
2020/12/19 00:46:49;;;;;;;73.47;23.60;;;;;;;-1.23;100.00;96586.16;1024837;29;20019;-77
2020/12/19 00:47:19;;;;;;;47.80;18.77;;;;;;;-1.49;100.00;96546.78;1028727;28;20050;-77
2020/12/19 00:47:50;;;;;;;70.13;24.30;;;;;;;-1.25;100.00;96588.03;1041053;28;20064;-78
2020/12/19 00:48:21;;;;;;;62.60;22.98;;;;;;;-1.22;100.00;96585.22;1025088;28;20027;-78
2020/12/19 00:48:51;;;;;;;56.28;21.45;;;;;;;-1.18;100.00;96594.56;1024877;29;20011;-77
2020/12/19 00:49:22;;;;;;;99.18;27.25;;;;;;;-1.24;100.00;96585.31;1032911;28;20558;-77
2020/12/19 00:49:53;;;;;;;67.15;22.48;;;;;;;-1.20;100.00;96592.03;1037005;28;20104;-78
2020/12/19 00:50:24;;;;;;;79.53;25.90;;;;;;;-1.21;100.00;96585.13;1037058;28;20099;-78
2020/12/19 00:50:55;;;;;;;76.22;26.38;;;;;;;-1.12;100.00;96580.34;1024855;28;20114;-77
2020/12/19 00:51:25;;;;;;;90.57;26.98;;;;;;;-1.15;100.00;96570.91;1024651;28;20016;-77
2020/12/19 00:51:56;;;;;;;60.85;21.45;;;;;;;-1.02;100.00;96579.72;1036887;28;20388;-78
2020/12/19 00:52:27;;;;;;;128.93;30.50;;;;;;;-1.16;100.00;96583.09;1033003;28;20023;-77
2020/12/19 00:52:58;;;;;;;103.85;27.17;;;;;;;-1.29;100.00;96563.06;1032792;28;20022;-77
2020/12/19 00:53:29;;;;;;;88.40;26.38;;;;;;;-1.34;100.00;96569.38;1036752;28;20107;-77
2020/12/19 00:54:00;;;;;;;69.30;24.75;;;;;;;-1.29;100.00;96565.66;1032927;28;20076;-78
2020/12/19 00:54:31;;;;;;;71.35;25.55;;;;;;;-1.27;100.00;96576.81;1028764;28;20026;-78
2020/12/19 00:55:03;;;;;;;94.88;24.67;;;;;;;-1.12;100.00;96578.56;1024643;28;20015;-78
2020/12/19 00:55:34;;;;;;;55.65;21.50;;;;;;;-1.26;100.00;96562.88;1028824;28;20035;-78
2020/12/19 00:56:04;;;;;;;68.57;23.52;;;;;;;-1.15;100.00;96582.19;1036879;28;20017;-78
2020/12/19 00:56:36;;;;;;;77.60;24.67;;;;;;;-1.13;100.00;96576.91;1032729;28;20058;-78
2020/12/19 00:57:07;;;;;;;56.67;21.80;;;;;;;-1.07;100.00;96580.91;1028573;28;20535;-77
2020/12/19 00:57:38;;;;;;;45.72;19.42;;;;;;;-1.07;100.00;96568.72;1024716;28;20034;-77
2020/12/19 00:58:09;;;;;;;59.67;23.88;;;;;;;-1.10;100.00;96563.66;1032627;28;20029;-78
2020/12/19 00:58:40;;;;;;;64.43;22.83;;;;;;;-1.08;100.00;96567.06;1036586;28;20092;-78
2020/12/19 00:59:10;;;;;;;47.33;19.42;;;;;;;-1.00;100.00;96583.06;1028334;28;20019;-77
2020/12/19 00:59:41;;;;;;;91.25;23.52;;;;;;;-1.20;100.00;96567.72;1032425;28;20026;-77
2020/12/19 01:00:12;;;;;;;55.33;21.15;;;;;;;-1.29;100.00;96574.31;1032221;28;20471;-78
2020/12/19 01:00:43;;;;;;;69.05;21.00;;;;;;;-1.58;100.00;96534.31;1024131;29;20027;-77
2020/12/19 01:01:14;;;;;;;71.60;21.55;;;;;;;-1.42;100.00;96579.38;1028001;28;20029;-78
2020/12/19 01:01:45;;;;;;;73.22;22.88;;;;;;;-1.41;100.00;96586.28;1040897;28;20017;-77
2020/12/19 01:02:16;;;;;;;75.45;24.33;;;;;;;-1.37;100.00;96579.97;1032956;28;20015;-78
2020/12/19 01:02:47;;;;;;;62.47;20.02;;;;;;;-1.29;100.00;96581.28;1037010;28;20022;-78
2020/12/19 01:03:17;;;;;;;58.85;20.15;;;;;;;-1.37;100.00;96590.38;1036909;28;20068;-77
2020/12/19 01:03:49;;;;;;;61.53;21.40;;;;;;;-1.30;100.00;96582.25;1024643;29;20511;-77
2020/12/19 01:04:23;;;;;;;64.55;22.17;;;;;;;-1.33;100.00;96589.28;1032940;28;20022;-77
2020/12/19 01:04:54;;;;;;;65.72;22.92;;;;;;;-1.39;100.00;96574.00;1033226;28;20057;-78
2020/12/19 01:05:24;;;;;;;62.72;22.55;;;;;;;-1.46;100.00;96564.88;1028519;28;20015;-77
2020/12/19 01:05:55;;;;;;;69.95;23.83;;;;;;;-1.45;100.00;96569.13;1028665;28;20026;-78
2020/12/19 01:06:27;;;;;;;74.57;25.02;;;;;;;-1.32;100.00;96590.13;1036856;28;20105;-78
2020/12/19 01:06:58;;;;;;;60.13;21.60;;;;;;;-1.35;100.00;96572.06;1020916;29;20020;-78
2020/12/19 01:07:30;;;;;;;108.55;29.73;;;;;;;-1.20;100.00;96591.19;1028798;28;20634;-77
2020/12/19 01:08:02;;;;;;;106.20;29.23;;;;;;;-1.23;100.00;96583.56;1025031;28;20027;-78
2020/12/19 01:08:32;;;;;;;88.10;25.80;;;;;;;-1.26;100.00;96586.34;1037204;28;20089;-78
2020/12/19 01:09:04;;;;;;;135.85;32.10;;;;;;;-1.23;100.00;96584.38;1025189;28;20031;-77
2020/12/19 01:09:35;;;;;;;108.40;28.50;;;;;;;-1.22;100.00;96585.22;1029094;28;20030;-77
2020/12/19 01:10:07;;;;;;;58.67;21.33;;;;;;;-1.24;100.00;96587.91;1036899;28;20026;-78
2020/12/19 01:10:38;;;;;;;71.40;25.10;;;;;;;-1.29;100.00;96576.06;1025043;29;20027;-78
2020/12/19 01:11:17;;;;;;;84.13;25.98;;;;;;;-1.26;100.00;96584.56;1033132;28;20086;-77
2020/12/19 01:11:49;;;;;;;106.03;26.77;;;;;;;-1.28;100.00;96573.38;1040628;28;20504;-77
2020/12/19 01:12:20;;;;;;;94.18;23.67;;;;;;;-1.17;100.00;96588.41;1028884;28;20026;-78
2020/12/19 01:12:51;;;;;;;121.60;28.88;;;;;;;-1.18;100.00;96586.75;1032932;28;20105;-77
2020/12/19 01:13:22;;;;;;;88.60;25.30;;;;;;;-1.38;100.00;96560.03;1033045;28;20023;-77
2020/12/19 01:13:53;;;;;;;67.93;21.92;;;;;;;-1.31;100.00;96590.97;1021182;29;20107;-78
2020/12/19 01:14:23;;;;;;;66.63;21.52;;;;;;;-1.34;100.00;96592.00;1032909;28;20097;-77
2020/12/19 01:14:54;;;;;;;63.78;22.58;;;;;;;-1.35;100.00;96593.72;1029042;28;20037;-78
2020/12/19 01:15:25;;;;;;;55.38;19.90;;;;;;;-1.27;100.00;96585.50;1024888;29;20094;-77
2020/12/19 01:15:56;;;;;;;77.20;23.15;;;;;;;-1.31;100.00;96588.34;1028785;28;20102;-77
2020/12/19 01:16:28;;;;;;;66.63;21.75;;;;;;;-1.28;100.00;96593.41;1020883;28;20026;-78
2020/12/19 01:16:59;;;;;;;97.00;27.05;;;;;;;-1.34;100.00;96582.41;1032959;28;20006;-77
2020/12/19 01:17:30;;;;;;;82.88;24.50;;;;;;;-1.42;100.00;96579.38;1028886;28;20022;-78
2020/12/19 01:18:00;;;;;;;124.40;28.98;;;;;;;-1.31;100.00;96570.13;1028964;28;20033;-77
2020/12/19 01:18:31;;;;;;;109.50;25.75;;;;;;;-1.34;100.00;96561.56;1036802;28;20379;-78
2020/12/19 01:19:04;;;;;;;103.60;25.90;;;;;;;-1.23;100.00;96589.59;1033050;28;20025;-77
2020/12/19 01:19:34;;;;;;;99.75;25.52;;;;;;;-1.23;100.00;96592.22;1029075;28;20454;-78
2020/12/19 01:20:05;;;;;;;83.03;20.60;;;;;;;-1.21;100.00;96586.91;1032834;28;20014;-78
2020/12/19 01:20:36;;;;;;;117.72;25.90;;;;;;;-1.25;100.00;96586.25;1029026;28;20019;-78
2020/12/19 01:21:11;;;;;;;105.60;26.45;;;;;;;-1.22;100.00;96591.28;1036494;28;20028;-77
2020/12/19 01:21:42;;;;;;;119.13;26.83;;;;;;;-1.37;100.00;96571.31;1037054;28;20013;-78
2020/12/19 01:22:13;;;;;;;66.70;21.63;;;;;;;-1.32;100.00;96582.31;1028834;28;20447;-77
2020/12/19 01:22:44;;;;;;;84.95;23.83;;;;;;;-1.30;100.00;96587.44;1032934;28;20018;-78
2020/12/19 01:23:14;;;;;;;92.47;24.83;;;;;;;-1.46;100.00;96571.81;1033143;28;20089;-77
2020/12/19 01:23:46;;;;;;;74.38;23.40;;;;;;;-1.46;100.00;96577.88;1028945;28;20026;-78
2020/12/19 01:24:17;;;;;;;68.00;22.10;;;;;;;-1.43;100.00;96588.13;1032881;28;20410;-77
2020/12/19 01:24:48;;;;;;;81.85;24.52;;;;;;;-1.36;100.00;96589.47;1032914;28;20037;-78
2020/12/19 01:25:19;;;;;;;114.05;26.95;;;;;;;-1.38;100.00;96591.28;1036670;28;20006;-77
2020/12/19 01:25:49;;;;;;;100.93;27.52;;;;;;;-1.49;100.00;96566.81;1041203;28;20052;-78
2020/12/19 01:26:20;;;;;;;208.02;36.40;;;;;;;-1.44;100.00;96588.22;1036760;28;20010;-77
2020/12/19 01:26:51;;;;;;;123.22;28.02;;;;;;;-1.36;100.00;96588.59;1028837;28;20011;-78
2020/12/19 01:27:21;;;;;;;111.72;27.60;;;;;;;-1.34;100.00;96586.78;1036873;28;20032;-78
2020/12/19 01:27:52;;;;;;;90.38;25.50;;;;;;;-1.41;100.00;96572.41;1033219;28;20010;-78
2020/12/19 01:28:23;;;;;;;51.88;19.38;;;;;;;-1.26;100.00;96586.34;1041010;28;20021;-77
2020/12/19 01:28:54;;;;;;;95.20;27.05;;;;;;;-1.30;100.00;96584.84;1029069;28;20042;-78
2020/12/19 01:29:25;;;;;;;139.50;31.23;;;;;;;-1.28;100.00;96582.97;1028878;28;20046;-77
2020/12/19 01:29:56;;;;;;;109.03;29.02;;;;;;;-1.36;100.00;96571.22;1032967;28;20014;-78
2020/12/19 01:30:27;;;;;;;122.03;30.15;;;;;;;-1.50;100.00;96537.28;1032915;28;20035;-77
2020/12/19 01:31:07;;;;;;;94.70;26.92;;;;;;;-1.24;100.00;96587.06;1032805;28;20391;-77
2020/12/19 01:31:38;;;;;;;72.57;22.65;;;;;;;-1.43;100.00;96554.28;1028987;28;20480;-77
2020/12/19 01:32:09;;;;;;;96.90;25.08;;;;;;;-1.26;100.00;96583.72;1033085;28;20069;-78
2020/12/19 01:32:40;;;;;;;106.30;27.13;;;;;;;-1.24;100.00;96584.47;1029137;28;20125;-78
2020/12/19 01:33:11;;;;;;;113.68;30.33;;;;;;;-1.24;100.00;96582.69;1028756;28;20204;-77
2020/12/19 01:33:42;;;;;;;90.40;26.83;;;;;;;-1.36;100.00;96570.38;1032776;28;20023;-77
2020/12/19 01:34:12;;;;;;;125.40;29.98;;;;;;;-1.52;100.00;96552.16;1033002;28;20030;-78
2020/12/19 01:34:43;;;;;;;90.97;22.60;;;;;;;-1.32;100.00;96579.72;1024945;29;20019;-77
2020/12/19 01:35:14;;;;;;;130.77;27.95;;;;;;;-1.37;100.00;96587.78;1040745;28;20434;-78
2020/12/19 01:35:45;;;;;;;81.70;22.73;;;;;;;-1.36;100.00;96586.00;1028927;28;20023;-78
2020/12/19 01:36:18;;;;;;;105.57;25.00;;;;;;;-1.38;100.00;96578.28;1036833;28;20032;-78
2020/12/19 01:36:49;;;;;;;136.18;30.17;;;;;;;-1.35;100.00;96585.91;1029035;28;20019;-78
2020/12/19 01:37:19;;;;;;;134.43;27.33;;;;;;;-1.36;100.00;96580.78;1024445;28;20043;-77
2020/12/19 01:37:50;;;;;;;153.32;30.38;;;;;;;-1.26;100.00;96584.56;1028535;28;20014;-77
2020/12/19 01:38:21;;;;;;;170.05;32.22;;;;;;;-1.43;100.00;96569.03;1028815;28;20019;-78
2020/12/19 01:38:52;;;;;;;266.70;40.33;;;;;;;-1.44;100.00;96581.25;1033005;28;20053;-78
2020/12/19 01:39:23;;;;;;;138.82;30.48;;;;;;;-1.50;100.00;96571.16;1025147;29;20062;-78
2020/12/19 01:39:54;;;;;;;185.82;34.50;;;;;;;-1.40;100.00;96567.09;1028843;28;20019;-78
2020/12/19 01:40:25;;;;;;;172.77;35.33;;;;;;;-1.58;100.00;96531.69;1028713;28;20042;-77
2020/12/19 01:40:56;;;;;;;93.00;25.13;;;;;;;-1.38;100.00;96570.47;1028910;28;20041;-77
2020/12/19 01:41:27;;;;;;;54.28;20.27;;;;;;;-1.28;100.00;96591.63;1033012;28;20030;-78
2020/12/19 01:41:58;;;;;;;129.77;29.63;;;;;;;-1.35;100.00;96570.28;1036890;28;20013;-78
2020/12/19 01:42:29;;;;;;;72.93;22.40;;;;;;;-1.37;100.00;96569.53;1028722;28;20377;-77
2020/12/19 01:42:59;;;;;;;107.63;27.77;;;;;;;-1.36;100.00;96568.63;1028729;28;20019;-77
2020/12/19 01:43:42;;;;;;;74.70;23.45;;;;;;;-1.34;100.00;96574.59;1024791;28;20031;-77
2020/12/19 01:44:13;;;;;;;104.00;26.13;;;;;;;-1.48;100.00;96550.22;1032798;28;20052;-78
2020/12/19 01:44:44;;;;;;;81.35;23.92;;;;;;;-1.39;100.00;96571.41;1028924;28;20431;-78
2020/12/19 01:45:14;;;;;;;99.53;26.70;;;;;;;-1.40;100.00;96563.66;1028452;28;20117;-77
2020/12/19 01:45:45;;;;;;;58.05;20.33;;;;;;;-1.24;100.00;96576.66;1037089;28;20025;-78
2020/12/19 01:46:27;;;;;;;182.32;32.28;;;;;;;-1.33;100.00;96578.84;1036729;28;20022;-78
2020/12/19 01:47:00;;;;;;;66.43;20.98;;;;;;;-1.44;100.00;96546.53;1028529;28;20475;-77
2020/12/19 01:47:32;;;;;;;97.43;24.67;;;;;;;-1.33;100.00;96573.63;1028761;28;20015;-77
2020/12/19 01:48:04;;;;;;;149.25;30.77;;;;;;;-1.44;100.00;96549.97;1028675;28;20106;-78
2020/12/19 01:48:35;;;;;;;93.07;24.35;;;;;;;-1.26;100.00;96576.75;1033037;28;20022;-77
2020/12/19 01:49:05;;;;;;;71.93;21.75;;;;;;;-1.28;100.00;96575.16;1028834;28;20026;-77
2020/12/19 01:49:36;;;;;;;54.78;21.00;;;;;;;-1.31;100.00;96580.53;1028711;28;20027;-78
2020/12/19 01:50:07;;;;;;;63.08;22.17;;;;;;;-1.44;100.00;96552.59;1024737;29;20079;-77
2020/12/19 01:50:38;;;;;;;52.45;19.92;;;;;;;-1.27;100.00;96582.03;1028959;28;20532;-78
2020/12/19 01:51:08;;;;;;;59.17;20.40;;;;;;;-1.30;100.00;96577.03;1028479;28;20053;-77
2020/12/19 01:51:39;;;;;;;73.90;23.27;;;;;;;-1.46;100.00;96569.22;1028855;28;20444;-78
2020/12/19 01:52:10;;;;;;;75.25;23.20;;;;;;;-1.38;100.00;96572.22;1024866;28;20038;-78
2020/12/19 01:52:41;;;;;;;45.90;18.63;;;;;;;-1.39;100.00;96575.78;1036889;28;20018;-78
2020/12/19 01:53:12;;;;;;;42.40;19.05;;;;;;;-1.52;100.00;96552.16;1032466;28;20041;-77
2020/12/19 01:53:43;;;;;;;47.72;19.40;;;;;;;-1.35;100.00;96583.31;1029067;28;20042;-78
2020/12/19 01:54:13;;;;;;;106.18;25.55;;;;;;;-1.35;100.00;96574.66;1025093;28;20429;-78
2020/12/19 01:54:45;;;;;;;148.18;27.08;;;;;;;-1.45;100.00;96576.94;1032965;28;20026;-78
2020/12/19 01:55:15;;;;;;;138.63;26.98;;;;;;;-1.49;100.00;96572.00;1032375;28;20023;-77
2020/12/19 01:55:47;;;;;;;89.45;21.80;;;;;;;-1.42;100.00;96581.16;1036808;28;20088;-78
2020/12/19 01:56:30;;;;;;;102.57;22.00;;;;;;;-1.45;100.00;96574.34;1040864;28;20021;-77
2020/12/19 01:57:01;;;;;;;156.05;28.63;;;;;;;-1.64;100.00;96561.50;1032521;28;20026;-77
2020/12/19 01:57:32;;;;;;;93.45;22.33;;;;;;;-1.46;100.00;96579.63;1032750;28;20038;-78
2020/12/19 01:58:03;;;;;;;108.70;23.40;;;;;;;-1.53;100.00;96569.56;1024832;28;20110;-78
2020/12/19 01:58:34;;;;;;;97.13;23.17;;;;;;;-1.52;100.00;96565.19;1024794;28;20023;-78
2020/12/19 01:59:05;;;;;;;119.35;26.17;;;;;;;-1.47;100.00;96578.81;1032831;28;20033;-77
2020/12/19 01:59:36;;;;;;;104.82;25.17;;;;;;;-1.66;100.00;96550.34;1032596;28;20033;-77
2020/12/19 02:00:07;;;;;;;127.15;27.17;;;;;;;-1.48;100.00;96576.28;1024721;28;20031;-78
2020/12/19 02:00:39;;;;;;;68.88;19.30;;;;;;;-1.46;100.00;96571.81;1020637;29;20131;-78
2020/12/19 02:01:10;;;;;;;58.53;21.15;;;;;;;-1.56;100.00;96561.09;1028449;28;20526;-77
2020/12/19 02:01:43;;;;;;;96.00;23.70;;;;;;;-1.56;100.00;96568.91;1028796;28;20101;-77
2020/12/19 02:02:15;;;;;;;73.50;23.77;;;;;;;-1.49;100.00;96562.44;1024865;29;20118;-78
2020/12/19 02:02:46;;;;;;;129.82;28.73;;;;;;;-1.43;100.00;96579.47;1029023;28;20031;-77
2020/12/19 02:03:16;;;;;;;234.00;35.95;;;;;;;-1.43;100.00;96574.25;1036782;28;20499;-77
2020/12/19 02:03:47;;;;;;;145.52;29.33;;;;;;;-1.47;100.00;96577.97;1028714;28;20046;-77
2020/12/19 02:04:19;;;;;;;180.00;34.17;;;;;;;-1.62;100.00;96556.22;1032828;28;20113;-78
2020/12/19 02:04:50;;;;;;;146.27;30.50;;;;;;;-1.40;100.00;96579.28;1032608;28;20019;-78
2020/12/19 02:05:21;;;;;;;213.18;35.40;;;;;;;-1.43;100.00;96564.69;1036607;28;20486;-77
2020/12/19 02:05:53;;;;;;;205.38;36.92;;;;;;;-1.37;100.00;96572.16;1032811;28;20023;-78
2020/12/19 02:06:24;;;;;;;86.32;20.65;;;;;;;-1.25;100.00;96575.00;1036754;28;20541;-78
2020/12/19 02:06:55;;;;;;;143.23;30.42;;;;;;;-1.38;100.00;96565.25;1032308;28;20027;-78
2020/12/19 02:07:26;;;;;;;134.45;29.15;;;;;;;-1.49;100.00;96551.19;1032825;28;20034;-77
2020/12/19 02:07:57;;;;;;;151.80;27.70;;;;;;;-1.39;100.00;96571.41;1036943;28;20026;-78
2020/12/19 02:08:28;;;;;;;197.38;34.47;;;;;;;-1.36;100.00;96578.19;1028923;28;20117;-77
2020/12/19 02:08:59;;;;;;;269.98;40.97;;;;;;;-1.38;100.00;96574.84;1032822;28;20482;-77
2020/12/19 02:09:34;;;;;;;266.50;40.38;;;;;;;-1.37;100.00;96572.16;1036682;28;20425;-78
2020/12/19 02:10:06;;;;;;;211.05;36.10;;;;;;;-1.48;100.00;96564.13;1036902;28;20032;-78
2020/12/19 02:10:37;;;;;;;190.80;33.70;;;;;;;-1.55;100.00;96557.53;1024506;28;20106;-77
2020/12/19 02:11:08;;;;;;;228.40;35.35;;;;;;;-1.39;100.00;96576.63;1028652;28;20035;-78
2020/12/19 02:11:40;;;;;;;226.65;36.38;;;;;;;-1.48;100.00;96558.91;1032463;28;20084;-77
2020/12/19 02:12:11;;;;;;;220.52;35.65;;;;;;;-1.53;100.00;96564.38;1032668;28;20022;-78
2020/12/19 02:12:42;;;;;;;197.40;33.28;;;;;;;-1.62;100.00;96557.06;1036867;28;20076;-78
2020/12/19 02:13:13;;;;;;;342.90;44.35;;;;;;;-1.67;100.00;96568.66;1032404;28;20088;-77
2020/12/19 02:13:44;;;;;;;411.63;50.00;;;;;;;-1.74;100.00;96548.19;1032814;28;20483;-78
2020/12/19 02:14:15;;;;;;;408.38;48.13;;;;;;;-1.65;100.00;96562.44;1028836;28;20461;-77
2020/12/19 02:14:46;;;;;;;337.00;42.55;;;;;;;-1.49;100.00;96575.44;1028888;28;20031;-78
2020/12/19 02:15:17;;;;;;;114.65;24.77;;;;;;;-1.41;100.00;96572.41;1028443;28;20577;-78
2020/12/19 02:15:47;;;;;;;275.80;39.47;;;;;;;-1.77;100.00;96506.69;1036696;28;20479;-78
2020/12/19 02:16:18;;;;;;;289.40;42.45;;;;;;;-1.46;100.00;96557.06;1028961;28;20037;-77
2020/12/19 02:16:58;;;;;;;368.98;47.28;;;;;;;-1.35;100.00;96565.06;1028692;28;20487;-77
2020/12/19 02:17:29;;;;;;;;;;;;;;;-1.45;100.00;96563.91;1041205;28;20026;-77
2020/12/19 02:17:59;;;;;;;116.72;26.52;;;;;;;-1.48;100.00;96564.13;1037113;28;20182;-78
2020/12/19 02:18:30;;;;;;;67.53;21.35;;;;;;;-1.36;100.00;96560.81;1036678;28;20038;-77
2020/12/19 02:19:01;;;;;;;237.40;35.60;;;;;;;-1.53;100.00;96568.75;1032617;28;20025;-78
2020/12/19 02:19:32;;;;;;;83.18;23.42;;;;;;;-1.44;100.00;96560.41;1032555;28;20026;-77
2020/12/19 02:20:03;;;;;;;157.35;29.00;;;;;;;-1.51;100.00;96559.06;1040990;28;20080;-78
2020/12/19 02:20:34;;;;;;;150.38;26.92;;;;;;;-1.86;100.00;96517.63;1028768;28;20594;-78
2020/12/19 02:21:05;;;;;;;233.88;33.88;;;;;;;-1.66;100.00;96560.75;1036514;28;20030;-78
2020/12/19 02:21:36;;;;;;;321.60;40.83;;;;;;;-1.90;100.00;96506.56;1032669;28;20486;-78